sensor_id;sensor_type;location;lat;lon;timestamp;temperature;humidity
584;HTU21D;27024;54.068;12.116;2023-04-15T00:01:14;7.93;118.99
584;HTU21D;27024;54.068;12.116;2023-04-15T00:03:45;7.84;118.99
584;HTU21D;27024;54.068;12.116;2023-04-15T00:06:13;7.85;118.99
584;HTU21D;27024;54.068;12.116;2023-04-15T00:08:40;7.77;118.99
584;HTU21D;27024;54.068;12.116;2023-04-15T00:11:07;7.74;118.99
584;HTU21D;27024;54.068;12.116;2023-04-15T00:13:34;7.71;118.99
584;HTU21D;27024;54.068;12.116;2023-04-15T00:16:01;7.74;118.99
584;HTU21D;27024;54.068;12.116;2023-04-15T00:18:28;7.78;118.99
584;HTU21D;27024;54.068;12.116;2023-04-15T00:20:55;7.78;118.99
584;HTU21D;27024;54.068;12.116;2023-04-15T00:23:22;7.73;118.99
584;HTU21D;27024;54.068;12.116;2023-04-15T00:25:49;7.72;118.99
584;HTU21D;27024;54.068;12.116;2023-04-15T00:28:16;7.76;118.99
584;HTU21D;27024;54.068;12.116;2023-04-15T00:30:44;7.76;118.99
584;HTU21D;27024;54.068;12.116;2023-04-15T00:33:12;7.73;118.99
584;HTU21D;27024;54.068;12.116;2023-04-15T00:35:39;7.71;118.99
584;HTU21D;27024;54.068;12.116;2023-04-15T00:38:06;7.60;118.99
584;HTU21D;27024;54.068;12.116;2023-04-15T00:40:33;7.69;118.99
584;HTU21D;27024;54.068;12.116;2023-04-15T00:43:01;7.70;118.99
584;HTU21D;27024;54.068;12.116;2023-04-15T00:45:28;7.74;118.99
584;HTU21D;27024;54.068;12.116;2023-04-15T00:47:55;7.73;118.99
584;HTU21D;27024;54.068;12.116;2023-04-15T00:50:22;7.73;118.99
584;HTU21D;27024;54.068;12.116;2023-04-15T00:52:49;7.72;118.99
584;HTU21D;27024;54.068;12.116;2023-04-15T00:55:15;7.69;118.99
584;HTU21D;27024;54.068;12.116;2023-04-15T00:57:43;7.72;118.99
584;HTU21D;27024;54.068;12.116;2023-04-15T01:00:10;7.72;118.99
584;HTU21D;27024;54.068;12.116;2023-04-15T01:02:37;7.72;118.99
584;HTU21D;27024;54.068;12.116;2023-04-15T01:05:05;7.73;118.99
584;HTU21D;27024;54.068;12.116;2023-04-15T01:07:33;7.74;118.99
584;HTU21D;27024;54.068;12.116;2023-04-15T01:10:01;7.72;118.99
584;HTU21D;27024;54.068;12.116;2023-04-15T01:12:31;7.73;118.99
584;HTU21D;27024;54.068;12.116;2023-04-15T01:14:59;7.65;118.99
584;HTU21D;27024;54.068;12.116;2023-04-15T01:17:26;7.67;118.99
584;HTU21D;27024;54.068;12.116;2023-04-15T01:19:55;7.67;118.99
584;HTU21D;27024;54.068;12.116;2023-04-15T01:22:24;7.68;118.99
584;HTU21D;27024;54.068;12.116;2023-04-15T01:25:05;7.70;118.99
584;HTU21D;27024;54.068;12.116;2023-04-15T01:27:38;7.63;118.99
584;HTU21D;27024;54.068;12.116;2023-04-15T01:30:06;7.60;118.99
584;HTU21D;27024;54.068;12.116;2023-04-15T01:32:33;7.49;118.99
584;HTU21D;27024;54.068;12.116;2023-04-15T01:35:00;7.50;118.99
584;HTU21D;27024;54.068;12.116;2023-04-15T01:37:28;7.55;118.99
584;HTU21D;27024;54.068;12.116;2023-04-15T01:39:55;7.54;118.99
584;HTU21D;27024;54.068;12.116;2023-04-15T01:42:23;7.60;118.99
584;HTU21D;27024;54.068;12.116;2023-04-15T01:44:50;7.64;118.99
584;HTU21D;27024;54.068;12.116;2023-04-15T01:47:16;7.59;118.99
584;HTU21D;27024;54.068;12.116;2023-04-15T01:49:43;7.63;118.99
584;HTU21D;27024;54.068;12.116;2023-04-15T01:52:10;7.57;118.99
584;HTU21D;27024;54.068;12.116;2023-04-15T01:54:37;7.62;118.99
584;HTU21D;27024;54.068;12.116;2023-04-15T01:57:03;7.59;118.99
584;HTU21D;27024;54.068;12.116;2023-04-15T01:59:31;7.59;118.99
584;HTU21D;27024;54.068;12.116;2023-04-15T02:01:58;7.60;118.99
584;HTU21D;27024;54.068;12.116;2023-04-15T02:04:25;7.62;118.99
584;HTU21D;27024;54.068;12.116;2023-04-15T02:06:53;7.62;118.99
584;HTU21D;27024;54.068;12.116;2023-04-15T02:09:20;7.58;118.99
584;HTU21D;27024;54.068;12.116;2023-04-15T02:11:46;7.56;118.99
584;HTU21D;27024;54.068;12.116;2023-04-15T02:14:13;7.62;118.99
584;HTU21D;27024;54.068;12.116;2023-04-15T02:16:40;7.58;118.99
584;HTU21D;27024;54.068;12.116;2023-04-15T02:19:07;7.58;118.99
584;HTU21D;27024;54.068;12.116;2023-04-15T02:21:34;7.58;118.99
584;HTU21D;27024;54.068;12.116;2023-04-15T02:24:01;7.61;118.99
584;HTU21D;27024;54.068;12.116;2023-04-15T02:26:28;7.64;118.99
584;HTU21D;27024;54.068;12.116;2023-04-15T02:28:58;7.63;118.99
584;HTU21D;27024;54.068;12.116;2023-04-15T02:31:25;7.54;118.99
584;HTU21D;27024;54.068;12.116;2023-04-15T02:33:52;7.59;118.99
584;HTU21D;27024;54.068;12.116;2023-04-15T02:36:19;7.62;118.99
584;HTU21D;27024;54.068;12.116;2023-04-15T02:38:46;7.60;118.99
584;HTU21D;27024;54.068;12.116;2023-04-15T02:41:13;7.67;118.99
584;HTU21D;27024;54.068;12.116;2023-04-15T02:43:40;7.62;118.99
584;HTU21D;27024;54.068;12.116;2023-04-15T02:46:07;7.69;118.99
584;HTU21D;27024;54.068;12.116;2023-04-15T02:48:35;7.68;118.99
584;HTU21D;27024;54.068;12.116;2023-04-15T02:51:16;7.65;118.99
584;HTU21D;27024;54.068;12.116;2023-04-15T02:53:45;7.65;118.99
584;HTU21D;27024;54.068;12.116;2023-04-15T02:56:13;7.71;118.99
584;HTU21D;27024;54.068;12.116;2023-04-15T02:58:41;7.69;118.99
584;HTU21D;27024;54.068;12.116;2023-04-15T03:01:08;7.69;118.99
584;HTU21D;27024;54.068;12.116;2023-04-15T03:03:35;7.71;118.99
584;HTU21D;27024;54.068;12.116;2023-04-15T03:06:02;7.70;118.99
584;HTU21D;27024;54.068;12.116;2023-04-15T03:08:29;7.71;118.99
584;HTU21D;27024;54.068;12.116;2023-04-15T03:10:57;7.74;118.99
584;HTU21D;27024;54.068;12.116;2023-04-15T03:13:26;7.71;118.99
584;HTU21D;27024;54.068;12.116;2023-04-15T03:15:53;7.72;118.99
584;HTU21D;27024;54.068;12.116;2023-04-15T03:18:20;7.83;118.99
584;HTU21D;27024;54.068;12.116;2023-04-15T03:20:47;7.82;118.99
584;HTU21D;27024;54.068;12.116;2023-04-15T03:23:14;7.83;118.99
584;HTU21D;27024;54.068;12.116;2023-04-15T03:25:41;7.81;118.99
584;HTU21D;27024;54.068;12.116;2023-04-15T03:28:08;7.76;118.99
584;HTU21D;27024;54.068;12.116;2023-04-15T03:30:34;7.79;118.99
584;HTU21D;27024;54.068;12.116;2023-04-15T03:33:01;7.82;118.99
584;HTU21D;27024;54.068;12.116;2023-04-15T03:35:28;7.85;118.99
584;HTU21D;27024;54.068;12.116;2023-04-15T03:37:55;7.82;118.99
584;HTU21D;27024;54.068;12.116;2023-04-15T03:40:21;7.84;118.99
584;HTU21D;27024;54.068;12.116;2023-04-15T03:42:48;7.82;118.99
584;HTU21D;27024;54.068;12.116;2023-04-15T03:45:15;7.81;118.99
584;HTU21D;27024;54.068;12.116;2023-04-15T03:47:42;7.84;118.99
584;HTU21D;27024;54.068;12.116;2023-04-15T03:50:09;7.79;118.99
584;HTU21D;27024;54.068;12.116;2023-04-15T03:52:36;7.82;118.99
584;HTU21D;27024;54.068;12.116;2023-04-15T03:55:03;7.81;118.99
584;HTU21D;27024;54.068;12.116;2023-04-15T03:57:30;7.85;118.99
584;HTU21D;27024;54.068;12.116;2023-04-15T03:59:57;7.88;118.99
584;HTU21D;27024;54.068;12.116;2023-04-15T04:02:24;7.90;118.99
584;HTU21D;27024;54.068;12.116;2023-04-15T04:04:51;7.88;118.99
584;HTU21D;27024;54.068;12.116;2023-04-15T04:07:18;7.88;118.99
584;HTU21D;27024;54.068;12.116;2023-04-15T04:09:45;7.88;118.99
584;HTU21D;27024;54.068;12.116;2023-04-15T04:12:13;7.88;118.99
584;HTU21D;27024;54.068;12.116;2023-04-15T04:14:40;7.86;118.99
584;HTU21D;27024;54.068;12.116;2023-04-15T04:17:07;7.88;118.99
584;HTU21D;27024;54.068;12.116;2023-04-15T04:19:34;7.83;118.99
584;HTU21D;27024;54.068;12.116;2023-04-15T04:22:01;7.86;118.99
584;HTU21D;27024;54.068;12.116;2023-04-15T04:24:28;7.86;118.99
584;HTU21D;27024;54.068;12.116;2023-04-15T04:26:54;7.89;118.99
584;HTU21D;27024;54.068;12.116;2023-04-15T04:29:23;7.91;118.99
584;HTU21D;27024;54.068;12.116;2023-04-15T04:31:49;7.93;118.99
584;HTU21D;27024;54.068;12.116;2023-04-15T04:34:16;7.91;118.99
584;HTU21D;27024;54.068;12.116;2023-04-15T04:36:43;7.96;118.99
584;HTU21D;27024;54.068;12.116;2023-04-15T04:39:10;7.82;118.99
584;HTU21D;27024;54.068;12.116;2023-04-15T04:41:37;7.81;118.99
584;HTU21D;27024;54.068;12.116;2023-04-15T04:44:03;7.86;118.99
584;HTU21D;27024;54.068;12.116;2023-04-15T04:46:30;7.86;118.99
584;HTU21D;27024;54.068;12.116;2023-04-15T04:48:57;7.87;118.99
584;HTU21D;27024;54.068;12.116;2023-04-15T04:51:24;7.79;118.99
584;HTU21D;27024;54.068;12.116;2023-04-15T04:53:51;7.81;118.99
584;HTU21D;27024;54.068;12.116;2023-04-15T04:56:18;7.90;118.99
584;HTU21D;27024;54.068;12.116;2023-04-15T04:58:45;8.14;118.99
584;HTU21D;27024;54.068;12.116;2023-04-15T05:01:12;7.98;118.99
584;HTU21D;27024;54.068;12.116;2023-04-15T05:03:39;7.91;118.99
584;HTU21D;27024;54.068;12.116;2023-04-15T05:06:06;7.97;118.99
584;HTU21D;27024;54.068;12.116;2023-04-15T05:08:34;8.02;118.99
584;HTU21D;27024;54.068;12.116;2023-04-15T05:11:02;8.02;118.99
584;HTU21D;27024;54.068;12.116;2023-04-15T05:13:29;8.12;118.99
584;HTU21D;27024;54.068;12.116;2023-04-15T05:15:56;8.13;118.99
584;HTU21D;27024;54.068;12.116;2023-04-15T05:18:23;8.21;118.99
584;HTU21D;27024;54.068;12.116;2023-04-15T05:20:50;8.29;118.99
584;HTU21D;27024;54.068;12.116;2023-04-15T05:23:17;8.36;118.99
584;HTU21D;27024;54.068;12.116;2023-04-15T05:25:44;8.46;118.99
584;HTU21D;27024;54.068;12.116;2023-04-15T05:28:10;8.71;118.99
584;HTU21D;27024;54.068;12.116;2023-04-15T05:30:38;9.16;118.99
584;HTU21D;27024;54.068;12.116;2023-04-15T05:33:05;8.97;118.99
584;HTU21D;27024;54.068;12.116;2023-04-15T05:35:32;8.80;118.99
584;HTU21D;27024;54.068;12.116;2023-04-15T05:37:59;8.71;118.99
584;HTU21D;27024;54.068;12.116;2023-04-15T05:40:26;8.74;118.99
584;HTU21D;27024;54.068;12.116;2023-04-15T05:42:53;8.81;118.99
584;HTU21D;27024;54.068;12.116;2023-04-15T05:45:21;8.88;118.99
584;HTU21D;27024;54.068;12.116;2023-04-15T05:47:48;9.02;118.99
584;HTU21D;27024;54.068;12.116;2023-04-15T05:50:16;9.01;118.99
584;HTU21D;27024;54.068;12.116;2023-04-15T05:52:43;9.11;118.99
584;HTU21D;27024;54.068;12.116;2023-04-15T05:55:11;9.32;118.99
584;HTU21D;27024;54.068;12.116;2023-04-15T05:57:38;9.17;118.99
584;HTU21D;27024;54.068;12.116;2023-04-15T06:00:05;9.27;118.99
584;HTU21D;27024;54.068;12.116;2023-04-15T06:02:32;9.45;118.99
584;HTU21D;27024;54.068;12.116;2023-04-15T06:05:00;9.56;118.99
584;HTU21D;27024;54.068;12.116;2023-04-15T06:07:27;9.55;118.99
584;HTU21D;27024;54.068;12.116;2023-04-15T06:09:53;9.66;118.99
584;HTU21D;27024;54.068;12.116;2023-04-15T06:12:20;9.53;118.99
584;HTU21D;27024;54.068;12.116;2023-04-15T06:14:47;9.55;118.99
584;HTU21D;27024;54.068;12.116;2023-04-15T06:17:14;9.60;118.99
584;HTU21D;27024;54.068;12.116;2023-04-15T06:19:40;9.71;118.99
584;HTU21D;27024;54.068;12.116;2023-04-15T06:22:07;9.74;118.99
584;HTU21D;27024;54.068;12.116;2023-04-15T06:24:34;9.74;118.99
584;HTU21D;27024;54.068;12.116;2023-04-15T06:27:02;9.75;118.77
584;HTU21D;27024;54.068;12.116;2023-04-15T06:29:29;10.04;117.79
584;HTU21D;27024;54.068;12.116;2023-04-15T06:31:56;10.24;116.11
584;HTU21D;27024;54.068;12.116;2023-04-15T06:34:23;10.28;115.86
584;HTU21D;27024;54.068;12.116;2023-04-15T06:36:50;10.46;115.66
584;HTU21D;27024;54.068;12.116;2023-04-15T06:39:16;10.67;113.94
584;HTU21D;27024;54.068;12.116;2023-04-15T06:41:43;10.92;112.46
584;HTU21D;27024;54.068;12.116;2023-04-15T06:44:10;10.93;112.43
584;HTU21D;27024;54.068;12.116;2023-04-15T06:46:37;10.95;112.41
584;HTU21D;27024;54.068;12.116;2023-04-15T06:49:04;11.29;109.83
584;HTU21D;27024;54.068;12.116;2023-04-15T06:51:31;11.77;107.99
584;HTU21D;27024;54.068;12.116;2023-04-15T06:53:58;12.07;107.03
584;HTU21D;27024;54.068;12.116;2023-04-15T06:56:25;11.81;107.24
584;HTU21D;27024;54.068;12.116;2023-04-15T06:58:52;11.96;106.79
584;HTU21D;27024;54.068;12.116;2023-04-15T07:01:19;12.30;105.79
584;HTU21D;27024;54.068;12.116;2023-04-15T07:03:47;12.15;104.21
584;HTU21D;27024;54.068;12.116;2023-04-15T07:06:13;12.16;106.31
584;HTU21D;27024;54.068;12.116;2023-04-15T07:08:40;12.56;103.63
584;HTU21D;27024;54.068;12.116;2023-04-15T07:11:07;12.41;103.35
584;HTU21D;27024;54.068;12.116;2023-04-15T07:13:34;12.50;102.99
584;HTU21D;27024;54.068;12.116;2023-04-15T07:16:01;12.50;104.05
584;HTU21D;27024;54.068;12.116;2023-04-15T07:18:28;12.46;104.06
584;HTU21D;27024;54.068;12.116;2023-04-15T07:20:54;12.20;104.70
584;HTU21D;27024;54.068;12.116;2023-04-15T07:23:21;12.36;102.97
584;HTU21D;27024;54.068;12.116;2023-04-15T07:25:48;12.58;102.64
584;HTU21D;27024;54.068;12.116;2023-04-15T07:28:15;12.72;101.53
584;HTU21D;27024;54.068;12.116;2023-04-15T07:30:42;12.91;102.14
584;HTU21D;27024;54.068;12.116;2023-04-15T07:33:09;12.93;100.74
584;HTU21D;27024;54.068;12.116;2023-04-15T07:35:36;12.99;100.63
584;HTU21D;27024;54.068;12.116;2023-04-15T07:38:03;12.85;98.89
584;HTU21D;27024;54.068;12.116;2023-04-15T07:40:30;13.01;99.19
584;HTU21D;27024;54.068;12.116;2023-04-15T07:42:56;13.01;98.64
584;HTU21D;27024;54.068;12.116;2023-04-15T07:45:24;13.24;101.05
584;HTU21D;27024;54.068;12.116;2023-04-15T07:47:50;13.17;97.87
584;HTU21D;27024;54.068;12.116;2023-04-15T07:50:17;13.26;97.40
584;HTU21D;27024;54.068;12.116;2023-04-15T07:52:45;13.40;97.41
584;HTU21D;27024;54.068;12.116;2023-04-15T07:55:12;13.71;95.55
584;HTU21D;27024;54.068;12.116;2023-04-15T07:57:38;13.69;96.54
584;HTU21D;27024;54.068;12.116;2023-04-15T08:00:06;13.61;94.76
584;HTU21D;27024;54.068;12.116;2023-04-15T08:02:33;13.74;93.24
584;HTU21D;27024;54.068;12.116;2023-04-15T08:05:03;13.65;94.56
584;HTU21D;27024;54.068;12.116;2023-04-15T08:07:30;14.14;95.46
584;HTU21D;27024;54.068;12.116;2023-04-15T08:09:58;13.99;92.31
584;HTU21D;27024;54.068;12.116;2023-04-15T08:12:25;13.45;94.24
584;HTU21D;27024;54.068;12.116;2023-04-15T08:14:51;14.17;93.27
584;HTU21D;27024;54.068;12.116;2023-04-15T08:17:18;13.98;93.93
584;HTU21D;27024;54.068;12.116;2023-04-15T08:19:45;13.83;92.42
584;HTU21D;27024;54.068;12.116;2023-04-15T08:22:14;13.81;92.53
584;HTU21D;27024;54.068;12.116;2023-04-15T08:24:44;13.67;90.91
584;HTU21D;27024;54.068;12.116;2023-04-15T08:27:12;13.65;91.31
584;HTU21D;27024;54.068;12.116;2023-04-15T08:29:39;13.92;92.98
584;HTU21D;27024;54.068;12.116;2023-04-15T08:32:06;14.12;93.18
584;HTU21D;27024;54.068;12.116;2023-04-15T08:34:33;14.13;90.23
584;HTU21D;27024;54.068;12.116;2023-04-15T08:37:00;14.38;92.51
584;HTU21D;27024;54.068;12.116;2023-04-15T08:39:27;14.54;91.42
584;HTU21D;27024;54.068;12.116;2023-04-15T08:42:00;14.49;90.53
584;HTU21D;27024;54.068;12.116;2023-04-15T08:44:34;14.37;90.23
584;HTU21D;27024;54.068;12.116;2023-04-15T08:47:06;14.00;88.96
584;HTU21D;27024;54.068;12.116;2023-04-15T08:49:38;13.86;90.34
584;HTU21D;27024;54.068;12.116;2023-04-15T08:52:06;13.84;90.13
584;HTU21D;27024;54.068;12.116;2023-04-15T08:54:33;13.65;91.27
584;HTU21D;27024;54.068;12.116;2023-04-15T08:57:00;13.81;89.97
584;HTU21D;27024;54.068;12.116;2023-04-15T08:59:31;13.62;90.57
584;HTU21D;27024;54.068;12.116;2023-04-15T09:01:58;13.92;91.48
584;HTU21D;27024;54.068;12.116;2023-04-15T09:04:25;14.05;91.34
584;HTU21D;27024;54.068;12.116;2023-04-15T09:06:53;14.42;89.72
584;HTU21D;27024;54.068;12.116;2023-04-15T09:09:20;14.68;86.80
584;HTU21D;27024;54.068;12.116;2023-04-15T09:11:48;14.94;85.84
584;HTU21D;27024;54.068;12.116;2023-04-15T09:14:16;15.26;87.05
584;HTU21D;27024;54.068;12.116;2023-04-15T09:17:02;15.42;81.88
584;HTU21D;27024;54.068;12.116;2023-04-15T09:19:31;15.54;79.56
584;HTU21D;27024;54.068;12.116;2023-04-15T09:21:59;15.44;79.25
584;HTU21D;27024;54.068;12.116;2023-04-15T09:24:38;15.74;77.14
584;HTU21D;27024;54.068;12.116;2023-04-15T09:27:06;15.84;75.15
584;HTU21D;27024;54.068;12.116;2023-04-15T09:29:33;15.99;74.17
584;HTU21D;27024;54.068;12.116;2023-04-15T09:32:11;15.19;77.08
584;HTU21D;27024;54.068;12.116;2023-04-15T09:34:39;15.26;79.53
584;HTU21D;27024;54.068;12.116;2023-04-15T09:37:06;15.12;78.35
584;HTU21D;27024;54.068;12.116;2023-04-15T09:39:50;14.84;80.09
584;HTU21D;27024;54.068;12.116;2023-04-15T09:42:18;14.75;81.72
584;HTU21D;27024;54.068;12.116;2023-04-15T09:44:50;14.38;82.76
584;HTU21D;27024;54.068;12.116;2023-04-15T09:47:30;14.43;84.14
584;HTU21D;27024;54.068;12.116;2023-04-15T09:49:59;14.47;83.69
584;HTU21D;27024;54.068;12.116;2023-04-15T09:52:27;14.17;83.65
584;HTU21D;27024;54.068;12.116;2023-04-15T09:54:56;14.30;85.82
584;HTU21D;27024;54.068;12.116;2023-04-15T09:57:24;13.93;86.45
584;HTU21D;27024;54.068;12.116;2023-04-15T09:59:51;14.57;84.69
584;HTU21D;27024;54.068;12.116;2023-04-15T10:02:18;14.55;85.48
584;HTU21D;27024;54.068;12.116;2023-04-15T10:04:49;14.70;81.88
584;HTU21D;27024;54.068;12.116;2023-04-15T10:07:18;14.69;82.37
584;HTU21D;27024;54.068;12.116;2023-04-15T10:09:47;14.55;85.22
584;HTU21D;27024;54.068;12.116;2023-04-15T10:12:16;15.22;83.98
584;HTU21D;27024;54.068;12.116;2023-04-15T10:14:43;15.06;86.37
584;HTU21D;27024;54.068;12.116;2023-04-15T10:17:11;15.14;87.23
584;HTU21D;27024;54.068;12.116;2023-04-15T10:19:39;15.12;87.76
584;HTU21D;27024;54.068;12.116;2023-04-15T10:22:07;15.54;84.76
584;HTU21D;27024;54.068;12.116;2023-04-15T10:24:34;15.86;82.22
584;HTU21D;27024;54.068;12.116;2023-04-15T10:27:02;15.96;79.50
584;HTU21D;27024;54.068;12.116;2023-04-15T10:29:30;16.36;77.53
584;HTU21D;27024;54.068;12.116;2023-04-15T10:31:58;15.80;79.30
584;HTU21D;27024;54.068;12.116;2023-04-15T10:34:25;15.89;79.25
584;HTU21D;27024;54.068;12.116;2023-04-15T10:37:00;15.73;79.47
584;HTU21D;27024;54.068;12.116;2023-04-15T10:39:42;15.31;82.10
584;HTU21D;27024;54.068;12.116;2023-04-15T10:42:17;15.41;82.39
584;HTU21D;27024;54.068;12.116;2023-04-15T10:44:48;15.34;84.10
584;HTU21D;27024;54.068;12.116;2023-04-15T10:47:18;15.03;84.50
584;HTU21D;27024;54.068;12.116;2023-04-15T10:49:51;14.99;84.94
584;HTU21D;27024;54.068;12.116;2023-04-15T10:52:23;14.56;84.98
584;HTU21D;27024;54.068;12.116;2023-04-15T10:55:02;14.85;84.79
584;HTU21D;27024;54.068;12.116;2023-04-15T10:57:34;14.95;83.45
584;HTU21D;27024;54.068;12.116;2023-04-15T11:02:52;15.46;82.23
584;HTU21D;27024;54.068;12.116;2023-04-15T11:05:21;15.15;83.17
584;HTU21D;27024;54.068;12.116;2023-04-15T11:07:53;15.66;80.91
584;HTU21D;27024;54.068;12.116;2023-04-15T11:20:51;16.58;74.04
584;HTU21D;27024;54.068;12.116;2023-04-15T11:23:36;16.28;72.60
584;HTU21D;27024;54.068;12.116;2023-04-15T11:26:08;15.75;75.65
584;HTU21D;27024;54.068;12.116;2023-04-15T11:28:43;15.63;74.21
584;HTU21D;27024;54.068;12.116;2023-04-15T11:31:16;15.62;74.19
584;HTU21D;27024;54.068;12.116;2023-04-15T11:33:58;15.46;79.54
584;HTU21D;27024;54.068;12.116;2023-04-15T11:36:27;15.78;77.14
584;HTU21D;27024;54.068;12.116;2023-04-15T11:38:54;16.94;71.96
584;HTU21D;27024;54.068;12.116;2023-04-15T11:41:22;16.52;74.91
584;HTU21D;27024;54.068;12.116;2023-04-15T11:43:50;16.28;75.57
584;HTU21D;27024;54.068;12.116;2023-04-15T11:46:17;16.08;73.56
584;HTU21D;27024;54.068;12.116;2023-04-15T11:48:45;15.75;76.49
584;HTU21D;27024;54.068;12.116;2023-04-15T11:51:13;15.34;80.15
584;HTU21D;27024;54.068;12.116;2023-04-15T11:56:15;15.53;81.99
584;HTU21D;27024;54.068;12.116;2023-04-15T11:58:42;15.56;80.39
584;HTU21D;27024;54.068;12.116;2023-04-15T12:01:10;15.76;79.85
584;HTU21D;27024;54.068;12.116;2023-04-15T12:03:43;16.00;78.71
584;HTU21D;27024;54.068;12.116;2023-04-15T12:11:32;15.49;78.99
584;HTU21D;27024;54.068;12.116;2023-04-15T12:16:44;15.55;79.67
584;HTU21D;27024;54.068;12.116;2023-04-15T12:19:21;15.76;77.99
584;HTU21D;27024;54.068;12.116;2023-04-15T12:21:48;15.83;80.56
584;HTU21D;27024;54.068;12.116;2023-04-15T12:24:19;15.68;79.49
584;HTU21D;27024;54.068;12.116;2023-04-15T12:27:00;15.58;77.93
584;HTU21D;27024;54.068;12.116;2023-04-15T12:29:31;15.22;78.42
584;HTU21D;27024;54.068;12.116;2023-04-15T12:32:05;15.19;77.08
584;HTU21D;27024;54.068;12.116;2023-04-15T12:34:35;15.18;76.29
584;HTU21D;27024;54.068;12.116;2023-04-15T12:37:03;14.99;75.83
584;HTU21D;27024;54.068;12.116;2023-04-15T12:39:34;15.42;76.98
584;HTU21D;27024;54.068;12.116;2023-04-15T12:42:02;15.65;75.31
584;HTU21D;27024;54.068;12.116;2023-04-15T12:44:30;15.45;76.99
584;HTU21D;27024;54.068;12.116;2023-04-15T12:46:58;15.21;77.22
584;HTU21D;27024;54.068;12.116;2023-04-15T12:49:26;14.84;81.20
584;HTU21D;27024;54.068;12.116;2023-04-15T12:51:55;14.88;81.14
584;HTU21D;27024;54.068;12.116;2023-04-15T12:54:22;14.93;82.28
584;HTU21D;27024;54.068;12.116;2023-04-15T12:56:49;14.84;81.74
584;HTU21D;27024;54.068;12.116;2023-04-15T12:59:16;14.73;82.46
584;HTU21D;27024;54.068;12.116;2023-04-15T13:01:45;14.70;82.90
584;HTU21D;27024;54.068;12.116;2023-04-15T13:04:14;14.75;83.90
584;HTU21D;27024;54.068;12.116;2023-04-15T13:06:42;14.79;83.75
584;HTU21D;27024;54.068;12.116;2023-04-15T13:09:09;15.16;83.03
584;HTU21D;27024;54.068;12.116;2023-04-15T13:11:36;15.34;81.54
584;HTU21D;27024;54.068;12.116;2023-04-15T13:14:05;15.37;81.94
584;HTU21D;27024;54.068;12.116;2023-04-15T13:16:33;15.40;81.49
584;HTU21D;27024;54.068;12.116;2023-04-15T13:19:01;14.98;81.36
584;HTU21D;27024;54.068;12.116;2023-04-15T13:21:29;14.64;82.77
584;HTU21D;27024;54.068;12.116;2023-04-15T13:23:58;14.63;85.39
584;HTU21D;27024;54.068;12.116;2023-04-15T13:26:25;14.85;84.97
584;HTU21D;27024;54.068;12.116;2023-04-15T13:28:52;14.65;84.99
584;HTU21D;27024;54.068;12.116;2023-04-15T13:31:19;14.79;84.35
584;HTU21D;27024;54.068;12.116;2023-04-15T13:33:45;14.81;84.15
584;HTU21D;27024;54.068;12.116;2023-04-15T13:36:12;14.64;85.28
584;HTU21D;27024;54.068;12.116;2023-04-15T13:38:39;14.57;86.29
584;HTU21D;27024;54.068;12.116;2023-04-15T13:41:06;14.44;86.17
584;HTU21D;27024;54.068;12.116;2023-04-15T13:43:33;14.47;86.74
584;HTU21D;27024;54.068;12.116;2023-04-15T13:46:00;14.34;86.54
584;HTU21D;27024;54.068;12.116;2023-04-15T13:48:27;14.49;85.77
584;HTU21D;27024;54.068;12.116;2023-04-15T13:50:55;13.94;87.66
584;HTU21D;27024;54.068;12.116;2023-04-15T13:53:22;13.69;88.80
584;HTU21D;27024;54.068;12.116;2023-04-15T13:56:08;13.66;89.95
584;HTU21D;27024;54.068;12.116;2023-04-15T13:58:35;13.52;90.20
584;HTU21D;27024;54.068;12.116;2023-04-15T14:01:04;13.39;92.26
584;HTU21D;27024;54.068;12.116;2023-04-15T14:03:36;13.44;92.09
584;HTU21D;27024;54.068;12.116;2023-04-15T14:06:04;13.22;92.42
584;HTU21D;27024;54.068;12.116;2023-04-15T14:08:31;13.12;93.67
584;HTU21D;27024;54.068;12.116;2023-04-15T14:10:58;13.18;94.85
584;HTU21D;27024;54.068;12.116;2023-04-15T14:13:26;13.21;94.56
584;HTU21D;27024;54.068;12.116;2023-04-15T14:15:53;13.06;94.46
584;HTU21D;27024;54.068;12.116;2023-04-15T14:18:20;12.91;95.36
584;HTU21D;27024;54.068;12.116;2023-04-15T14:20:46;12.93;95.58
584;HTU21D;27024;54.068;12.116;2023-04-15T14:23:13;12.86;96.34
584;HTU21D;27024;54.068;12.116;2023-04-15T14:25:40;12.80;96.13
584;HTU21D;27024;54.068;12.116;2023-04-15T14:28:07;12.71;96.94
584;HTU21D;27024;54.068;12.116;2023-04-15T14:30:34;12.65;96.81
584;HTU21D;27024;54.068;12.116;2023-04-15T14:33:01;12.42;97.58
584;HTU21D;27024;54.068;12.116;2023-04-15T14:35:28;12.40;98.03
584;HTU21D;27024;54.068;12.116;2023-04-15T14:37:55;12.35;98.48
584;HTU21D;27024;54.068;12.116;2023-04-15T14:40:22;12.45;98.74
584;HTU21D;27024;54.068;12.116;2023-04-15T14:42:49;12.46;98.71
584;HTU21D;27024;54.068;12.116;2023-04-15T14:45:16;12.52;98.32
584;HTU21D;27024;54.068;12.116;2023-04-15T14:47:43;12.36;99.38
584;HTU21D;27024;54.068;12.116;2023-04-15T14:50:10;12.43;98.82
584;HTU21D;27024;54.068;12.116;2023-04-15T14:52:38;12.43;98.76
584;HTU21D;27024;54.068;12.116;2023-04-15T14:55:06;12.48;98.70
584;HTU21D;27024;54.068;12.116;2023-04-15T14:57:33;12.44;99.27
584;HTU21D;27024;54.068;12.116;2023-04-15T15:00:00;12.34;99.58
584;HTU21D;27024;54.068;12.116;2023-04-15T15:02:26;12.41;98.93
584;HTU21D;27024;54.068;12.116;2023-04-15T15:05:05;12.21;100.05
584;HTU21D;27024;54.068;12.116;2023-04-15T15:07:32;12.30;99.96
584;HTU21D;27024;54.068;12.116;2023-04-15T15:09:59;12.30;99.83
584;HTU21D;27024;54.068;12.116;2023-04-15T15:12:26;12.26;99.68
584;HTU21D;27024;54.068;12.116;2023-04-15T15:14:54;12.13;99.97
584;HTU21D;27024;54.068;12.116;2023-04-15T15:17:21;12.10;100.45
584;HTU21D;27024;54.068;12.116;2023-04-15T15:19:48;12.07;100.46
584;HTU21D;27024;54.068;12.116;2023-04-15T15:22:15;12.34;100.16
584;HTU21D;27024;54.068;12.116;2023-04-15T15:24:42;12.35;99.40
584;HTU21D;27024;54.068;12.116;2023-04-15T15:27:09;12.13;100.02
584;HTU21D;27024;54.068;12.116;2023-04-15T15:29:36;12.08;99.33
584;HTU21D;27024;54.068;12.116;2023-04-15T15:32:04;11.96;99.55
584;HTU21D;27024;54.068;12.116;2023-04-15T15:34:31;12.07;98.96
584;HTU21D;27024;54.068;12.116;2023-04-15T15:36:59;12.14;98.61
584;HTU21D;27024;54.068;12.116;2023-04-15T15:39:26;12.04;99.39
584;HTU21D;27024;54.068;12.116;2023-04-15T15:41:53;12.00;99.32
584;HTU21D;27024;54.068;12.116;2023-04-15T15:44:20;12.01;99.42
584;HTU21D;27024;54.068;12.116;2023-04-15T15:46:47;12.14;98.77
584;HTU21D;27024;54.068;12.116;2023-04-15T15:49:15;12.11;98.55
584;HTU21D;27024;54.068;12.116;2023-04-15T15:51:42;12.20;100.10
584;HTU21D;27024;54.068;12.116;2023-04-15T15:54:09;12.26;97.93
584;HTU21D;27024;54.068;12.116;2023-04-15T15:56:35;12.19;100.58
584;HTU21D;27024;54.068;12.116;2023-04-15T15:59:05;11.89;98.71